Time;durP1;ratioP1;P1;durP2;ratioP2;P2;SDS_P1;SDS_P2;PMS_P1;PMS_P2;Temp;Humidity;BMP_temperature;BMP_pressure;BME280_temperature;BME280_humidity;BME280_pressure;Samples;Min_cycle;Max_cycle;Signal;HPM_P1;HPM_P2
2023/03/13 00:02:16;;;;;;;14.47;7.03;;;2.10;99.30;;;;;;9894539;30;20234;-79
2023/03/13 00:07:37;;;;;;;15.80;6.43;;;2.10;99.90;;;;;;9894532;30;20370;-79
2023/03/13 00:12:58;;;;;;;12.70;6.70;;;2.10;99.90;;;;;;9902274;30;20215;-79
2023/03/13 00:18:19;;;;;;;16.47;7.23;;;2.10;99.90;;;;;;9880667;30;20509;-77
2023/03/13 00:23:40;;;;;;;13.43;6.83;;;2.00;99.90;;;;;;9892614;30;20234;-80
2023/03/13 00:29:02;;;;;;;11.90;6.27;;;2.00;99.90;;;;;;9920551;30;20229;-77
2023/03/13 00:34:26;;;;;;;11.77;6.03;;;2.00;99.90;;;;;;9904563;30;20475;-77
2023/03/13 00:39:47;;;;;;;15.30;6.60;;;1.90;99.90;;;;;;9894251;30;20204;-76
2023/03/13 00:45:09;;;;;;;22.27;8.10;;;1.90;99.90;;;;;;9916794;30;20322;-77
2023/03/13 00:50:30;;;;;;;21.70;8.50;;;1.90;99.90;;;;;;9929359;30;20517;-76
2023/03/13 00:56:00;;;;;;;21.53;8.77;;;1.90;99.90;;;;;;9910661;30;20395;-77
2023/03/13 01:01:24;;;;;;;22.40;9.80;;;1.80;99.90;;;;;;9900883;30;20525;-79
2023/03/13 01:06:47;;;;;;;19.03;9.07;;;1.80;99.90;;;;;;9891570;30;20205;-77
2023/03/13 01:12:08;;;;;;;19.13;8.60;;;1.80;99.90;;;;;;9910664;30;20210;-77
2023/03/13 01:17:30;;;;;;;16.47;8.50;;;1.80;99.90;;;;;;9915354;30;20209;-77
2023/03/13 01:22:51;;;;;;;19.10;9.37;;;1.70;99.90;;;;;;9914497;29;20226;-79
2023/03/13 01:28:12;;;;;;;20.13;9.37;;;1.60;99.90;;;;;;9921260;30;20215;-77
2023/03/13 01:33:33;;;;;;;19.47;7.87;;;1.60;99.90;;;;;;9908571;30;20272;-77
2023/03/13 01:38:57;;;;;;;16.60;7.73;;;1.80;99.90;;;;;;9890884;30;20213;-77
2023/03/13 01:44:25;;;;;;;16.40;8.57;;;1.80;99.90;;;;;;9899452;30;20241;-77
2023/03/13 01:49:50;;;;;;;16.03;8.40;;;1.90;99.90;;;;;;9902534;30;20222;-77
2023/03/13 01:55:22;;;;;;;12.93;7.30;;;1.90;99.90;;;;;;9914336;29;20481;-77
2023/03/13 02:00:46;;;;;;;12.97;6.37;;;2.00;99.90;;;;;;9900162;30;20505;-78
2023/03/13 02:06:07;;;;;;;14.80;7.37;;;2.00;99.90;;;;;;9890117;30;20412;-76
2023/03/13 02:11:47;;;;;;;16.17;7.17;;;2.10;99.90;;;;;;9895811;30;20524;-77
2023/03/13 02:17:09;;;;;;;18.80;7.17;;;2.10;99.90;;;;;;9914706;30;20409;-79
2023/03/13 02:22:33;;;;;;;17.07;7.83;;;2.10;99.90;;;;;;9903720;30;20280;-78
2023/03/13 02:28:05;;;;;;;19.47;8.07;;;2.10;99.90;;;;;;9894633;30;20256;-78
2023/03/13 02:33:33;;;;;;;16.47;7.83;;;2.20;99.90;;;;;;9911486;29;20245;-79
2023/03/13 02:39:02;;;;;;;19.60;8.87;;;2.00;99.90;;;;;;9898271;30;20210;-78
2023/03/13 02:44:24;;;;;;;16.03;8.20;;;2.10;99.90;;;;;;9906203;30;20264;-79
2023/03/13 02:49:45;;;;;;;21.10;7.93;;;2.10;99.90;;;;;;9912632;30;20199;-78
2023/03/13 02:55:13;;;;;;;18.80;9.40;;;2.10;99.90;;;;;;9883527;30;20564;-79
2023/03/13 03:00:34;;;;;;;25.40;11.70;;;2.20;99.90;;;;;;9883757;30;20493;-79
2023/03/13 03:05:55;;;;;;;28.07;10.80;;;2.10;99.90;;;;;;9871480;30;20232;-79
2023/03/13 03:11:16;;;;;;;15.90;8.97;;;2.20;99.90;;;;;;9846587;30;20207;-78
2023/03/13 03:16:41;;;;;;;17.27;8.50;;;2.20;99.90;;;;;;9876033;30;20211;-79
2023/03/13 03:22:02;;;;;;;18.03;9.37;;;2.20;99.90;;;;;;9870284;30;20226;-79
2023/03/13 03:27:25;;;;;;;18.57;9.43;;;2.10;99.90;;;;;;9880191;30;20206;-79
2023/03/13 03:32:47;;;;;;;19.77;9.87;;;2.10;99.90;;;;;;9865947;30;20225;-79
2023/03/13 03:38:08;;;;;;;23.77;10.53;;;2.20;99.90;;;;;;9894849;30;20256;-78
2023/03/13 03:43:29;;;;;;;17.80;9.70;;;2.20;99.90;;;;;;9904814;29;20233;-78
2023/03/13 03:48:51;;;;;;;19.70;9.90;;;2.30;99.90;;;;;;9918777;30;20207;-78
2023/03/13 03:54:13;;;;;;;24.03;10.90;;;2.40;99.90;;;;;;9918286;30;20254;-78
2023/03/13 03:59:34;;;;;;;26.30;10.97;;;2.30;99.90;;;;;;9911737;30;20320;-78
2023/03/13 04:04:59;;;;;;;21.47;10.63;;;2.40;99.90;;;;;;9893939;30;20239;-80
2023/03/13 04:10:25;;;;;;;24.67;10.87;;;2.40;99.90;;;;;;9893832;30;20199;-79
2023/03/13 04:15:47;;;;;;;22.37;11.57;;;2.40;99.90;;;;;;9891821;30;20405;-79
2023/03/13 04:21:09;;;;;;;22.37;12.23;;;2.40;99.90;;;;;;9880456;30;20203;-79
2023/03/13 04:26:36;;;;;;;23.10;12.57;;;2.40;99.90;;;;;;9878520;30;20311;-79
2023/03/13 04:31:57;;;;;;;20.53;12.23;;;2.30;99.90;;;;;;9892767;30;20208;-79
2023/03/13 04:37:57;;;;;;;22.50;13.17;;;2.30;99.90;;;;;;9809284;30;20227;-79
2023/03/13 04:43:37;;;;;;;26.17;13.47;;;2.30;99.90;;;;;;9839043;30;20249;-80
2023/03/13 04:49:26;;;;;;;23.63;13.87;;;2.40;99.90;;;;;;9840389;30;20801;-80
2023/03/13 04:55:08;;;;;;;23.93;13.93;;;2.40;99.90;;;;;;9837131;30;20259;-78
2023/03/13 05:00:52;;;;;;;22.47;13.13;;;2.50;99.90;;;;;;9834525;30;20269;-79
2023/03/13 05:06:25;;;;;;;21.33;13.03;;;2.40;99.90;;;;;;9862223;30;20647;-80
2023/03/13 05:11:50;;;;;;;41.53;24.20;;;2.40;99.90;;;;;;9892318;30;20279;-78
2023/03/13 05:17:37;;;;;;;35.33;20.83;;;2.30;99.90;;;;;;9805725;30;20229;-77
2023/03/13 05:23:18;;;;;;;38.40;20.67;;;2.40;99.90;;;;;;9802748;30;20232;-78
2023/03/13 05:28:43;;;;;;;61.67;29.73;;;2.40;99.90;;;;;;9802203;30;20224;-80
2023/03/13 05:34:30;;;;;;;38.70;19.60;;;2.50;99.90;;;;;;9743136;30;20239;-79
2023/03/13 05:40:20;;;;;;;32.57;15.63;;;2.50;99.90;;;;;;9730205;30;20521;-80
2023/03/13 05:46:02;;;;;;;32.17;16.80;;;2.50;99.90;;;;;;9741765;30;20573;-79
2023/03/13 05:51:43;;;;;;;30.27;18.70;;;2.60;99.90;;;;;;9690663;30;20324;-79
2023/03/13 05:57:31;;;;;;;29.07;19.10;;;2.60;99.90;;;;;;9733944;30;20500;-79
2023/03/13 06:02:59;;;;;;;26.23;16.13;;;2.50;99.90;;;;;;9689947;30;20247;-79
2023/03/13 06:08:31;;;;;;;29.40;17.23;;;2.60;99.90;;;;;;9719436;30;20236;-79
2023/03/13 06:13:53;;;;;;;29.90;18.63;;;2.60;99.90;;;;;;9764844;30;20218;-80
2023/03/13 06:19:29;;;;;;;31.43;19.27;;;2.60;99.90;;;;;;9749413;30;20227;-79
2023/03/13 06:24:50;;;;;;;23.43;15.50;;;2.60;99.90;;;;;;9777860;30;20556;-79
2023/03/13 06:30:12;;;;;;;26.00;15.27;;;2.70;99.90;;;;;;9896098;30;20227;-80
2023/03/13 06:35:38;;;;;;;23.87;14.50;;;2.70;99.90;;;;;;9896601;30;20212;-80
2023/03/13 06:41:15;;;;;;;32.47;19.93;;;2.70;99.90;;;;;;9897452;30;20207;-78
2023/03/13 06:46:36;;;;;;;24.43;14.37;;;2.80;99.90;;;;;;9927155;30;20247;-78
2023/03/13 06:51:58;;;;;;;24.57;15.77;;;2.80;99.90;;;;;;9928550;30;20225;-79
2023/03/13 06:57:19;;;;;;;28.87;16.30;;;2.90;99.90;;;;;;9928357;30;20250;-79
2023/03/13 07:02:40;;;;;;;21.63;13.90;;;3.10;99.90;;;;;;9852891;30;20376;-79
2023/03/13 07:08:02;;;;;;;21.90;14.67;;;3.50;99.90;;;;;;9881345;30;20236;-78
2023/03/13 07:13:23;;;;;;;21.33;13.43;;;3.40;99.90;;;;;;9883167;30;20275;-78
2023/03/13 07:18:44;;;;;;;22.37;15.07;;;3.40;99.90;;;;;;9880903;30;20212;-79
2023/03/13 07:24:06;;;;;;;27.90;17.47;;;3.40;99.90;;;;;;9881235;30;20283;-78
2023/03/13 07:29:27;;;;;;;25.07;17.50;;;3.40;99.90;;;;;;9894922;30;20203;-78
2023/03/13 07:34:48;;;;;;;31.07;17.10;;;3.50;99.90;;;;;;9893250;30;20215;-78
2023/03/13 07:40:10;;;;;;;23.63;16.60;;;3.50;99.90;;;;;;9895244;30;20525;-78
2023/03/13 07:45:31;;;;;;;27.53;17.83;;;3.60;99.90;;;;;;9894857;30;20257;-79
2023/03/13 07:50:53;;;;;;;27.37;18.07;;;3.50;99.90;;;;;;9897223;30;20319;-78
2023/03/13 07:56:17;;;;;;;47.27;24.17;;;3.60;99.90;;;;;;9917336;29;20263;-78
2023/03/13 08:01:38;;;;;;;27.17;18.80;;;3.60;99.90;;;;;;9904951;30;20208;-78
2023/03/13 08:07:00;;;;;;;33.50;22.07;;;3.70;99.90;;;;;;9892018;30;20246;-79
2023/03/13 08:12:21;;;;;;;30.77;20.63;;;3.80;99.90;;;;;;9889960;30;20212;-78
2023/03/13 08:17:42;;;;;;;29.17;19.63;;;3.80;99.90;;;;;;9892780;30;20228;-77
2023/03/13 08:23:03;;;;;;;33.87;21.80;;;3.80;99.90;;;;;;9890960;30;20233;-77
2023/03/13 08:28:24;;;;;;;31.37;20.27;;;4.00;99.90;;;;;;9874087;30;20511;-77
2023/03/13 08:33:46;;;;;;;37.17;20.67;;;4.00;99.90;;;;;;9884855;30;20217;-82
2023/03/13 08:39:16;;;;;;;35.30;23.40;;;4.10;99.90;;;;;;9859430;30;20516;-81
2023/03/13 08:44:37;;;;;;;35.83;22.37;;;4.20;99.90;;;;;;9865837;30;20247;-81
2023/03/13 08:49:59;;;;;;;25.80;17.50;;;4.30;99.90;;;;;;9871205;30;20288;-79
2023/03/13 08:55:20;;;;;;;29.70;18.57;;;4.50;99.90;;;;;;9877868;30;20315;-77
2023/03/13 09:00:41;;;;;;;31.27;19.97;;;4.60;99.90;;;;;;9880164;30;20220;-76
2023/03/13 09:06:03;;;;;;;30.23;19.27;;;4.60;99.90;;;;;;9883241;30;20242;-77
2023/03/13 09:11:25;;;;;;;25.43;18.13;;;4.60;99.90;;;;;;9883180;30;20213;-76
2023/03/13 09:16:47;;;;;;;27.33;19.07;;;4.60;99.90;;;;;;9872137;30;20479;-76
2023/03/13 09:22:08;;;;;;;25.47;17.40;;;4.60;99.90;;;;;;9870814;30;20255;-77
2023/03/13 09:27:29;;;;;;;24.43;16.87;;;4.70;99.90;;;;;;9877914;30;20263;-76
2023/03/13 09:32:50;;;;;;;24.27;15.87;;;4.60;99.90;;;;;;9884822;30;20205;-80
2023/03/13 09:38:12;;;;;;;26.27;16.20;;;4.80;99.90;;;;;;9872571;30;20258;-84
2023/03/13 09:43:42;;;;;;;76.03;25.30;;;4.90;99.90;;;;;;9881523;30;20243;-80
2023/03/13 09:49:22;;;;;;;24.83;17.13;;;5.00;99.90;;;;;;9902205;30;20213;-77
2023/03/13 09:54:55;;;;;;;31.43;19.00;;;5.00;99.90;;;;;;9884205;30;20529;-80
2023/03/13 10:00:23;;;;;;;33.17;19.30;;;5.00;99.90;;;;;;9871364;30;20224;-80
2023/03/13 10:05:50;;;;;;;28.90;19.57;;;5.00;99.90;;;;;;9883894;30;20248;-76
2023/03/13 10:11:36;;;;;;;24.17;16.40;;;5.10;99.90;;;;;;9886178;30;20209;-77
2023/03/13 10:17:23;;;;;;;24.67;16.77;;;5.10;99.90;;;;;;9863938;30;20308;-79
2023/03/13 10:22:47;;;;;;;20.27;14.77;;;5.10;99.90;;;;;;9878710;30;20270;-77
2023/03/13 10:28:14;;;;;;;17.53;12.53;;;5.30;99.90;;;;;;9883183;30;20218;-80
2023/03/13 10:33:37;;;;;;;17.43;11.83;;;5.40;99.90;;;;;;9885057;30;20440;-77
2023/03/13 10:38:58;;;;;;;19.67;12.80;;;5.40;99.90;;;;;;9893816;30;20393;-74
2023/03/13 10:44:21;;;;;;;18.80;11.40;;;5.40;99.90;;;;;;9906321;30;20257;-77
2023/03/13 10:49:51;;;;;;;19.47;13.07;;;5.40;99.90;;;;;;9885164;30;20438;-78
2023/03/13 10:55:18;;;;;;;17.30;12.00;;;5.40;99.90;;;;;;9909299;30;20260;-83
2023/03/13 11:00:40;;;;;;;17.43;12.97;;;5.60;99.90;;;;;;9897388;30;20517;-79
2023/03/13 11:06:02;;;;;;;16.30;10.53;;;5.60;99.90;;;;;;9890831;30;20403;-89
2023/03/13 11:11:29;;;;;;;23.97;14.80;;;5.60;99.90;;;;;;9862758;30;20212;-79
2023/03/13 11:16:54;;;;;;;27.47;17.30;;;5.70;99.90;;;;;;9889396;30;20488;-75
2023/03/13 11:22:24;;;;;;;21.33;12.27;;;5.70;99.90;;;;;;9889058;30;20212;-76
2023/03/13 11:28:20;;;;;;;21.40;12.77;;;5.80;99.90;;;;;;9887673;30;20315;-76
2023/03/13 11:34:12;;;;;;;22.40;12.83;;;5.80;99.90;;;;;;9884681;30;20209;-77
2023/03/13 11:39:58;;;;;;;16.67;11.17;;;5.90;99.90;;;;;;9887959;30;20500;-76
2023/03/13 11:45:52;;;;;;;21.40;12.23;;;5.80;99.90;;;;;;9887309;30;20260;-76
2023/03/13 11:51:16;;;;;;;19.17;11.70;;;5.80;99.90;;;;;;9890383;30;20433;-77
2023/03/13 11:56:54;;;;;;;20.23;12.37;;;5.90;99.90;;;;;;9891294;30;20257;-82
2023/03/13 12:02:25;;;;;;;21.57;14.43;;;5.90;99.90;;;;;;9891139;30;20217;-77
2023/03/13 12:07:46;;;;;;;24.90;14.93;;;5.90;99.90;;;;;;9874553;30;20241;-76
2023/03/13 12:13:21;;;;;;;28.20;15.47;;;5.90;99.90;;;;;;9887005;30;20437;-78
2023/03/13 12:18:44;;;;;;;24.57;13.93;;;6.00;99.90;;;;;;9889121;30;20220;-75
2023/03/13 12:24:19;;;;;;;18.87;11.90;;;6.10;99.90;;;;;;9838549;30;20311;-78
2023/03/13 12:30:00;;;;;;;27.13;13.40;;;6.10;99.90;;;;;;9858426;30;20225;-80
2023/03/13 12:35:32;;;;;;;22.57;12.40;;;6.10;99.90;;;;;;9887505;30;20295;-79
2023/03/13 12:41:11;;;;;;;24.07;14.33;;;6.20;99.90;;;;;;9885812;30;20584;-78
2023/03/13 12:46:47;;;;;;;21.33;13.50;;;6.30;99.90;;;;;;9853652;30;20390;-78
2023/03/13 12:52:44;;;;;;;19.03;11.07;;;6.20;99.90;;;;;;9885788;30;20267;-78
2023/03/13 12:58:25;;;;;;;21.87;12.53;;;6.30;99.90;;;;;;9884582;30;20781;-78
2023/03/13 13:03:50;;;;;;;27.53;15.37;;;6.30;99.90;;;;;;9885765;30;20436;-77
2023/03/13 13:09:27;;;;;;;20.10;11.43;;;6.30;99.90;;;;;;9885632;30;20204;-76
2023/03/13 13:14:49;;;;;;;19.07;12.53;;;6.40;99.90;;;;;;9885529;30;20251;-82
2023/03/13 13:21:08;;;;;;;23.70;12.60;;;6.40;99.90;;;;;;9874438;30;20288;-82
2023/03/13 13:26:37;;;;;;;19.63;12.40;;;6.50;99.90;;;;;;9795373;30;20243;-78
2023/03/13 13:32:00;;;;;;;18.07;8.57;;;6.60;99.90;;;;;;9806045;30;20424;-81
2023/03/13 13:37:21;;;;;;;17.30;8.33;;;6.60;99.90;;;;;;9770171;30;20226;-82
2023/03/13 13:42:58;;;;;;;13.90;8.57;;;6.70;99.90;;;;;;9772495;30;20366;-76
2023/03/13 13:48:41;;;;;;;15.70;8.60;;;6.70;99.90;;;;;;9809454;30;20220;-79
2023/03/13 13:54:41;;;;;;;19.30;10.20;;;6.80;99.90;;;;;;9781087;30;20276;-79
2023/03/13 14:00:25;;;;;;;17.97;10.00;;;6.70;99.90;;;;;;9788952;30;20224;-82
2023/03/13 14:05:50;;;;;;;10.40;7.30;;;6.80;99.90;;;;;;9794388;30;20297;-78
2023/03/13 14:11:35;;;;;;;16.17;8.23;;;6.90;99.90;;;;;;9797163;30;20272;-75
2023/03/13 14:16:57;;;;;;;13.07;7.57;;;7.00;99.90;;;;;;9788843;30;20569;-74
2023/03/13 14:22:18;;;;;;;13.30;9.20;;;7.00;99.90;;;;;;9784505;30;20310;-79
2023/03/13 14:27:43;;;;;;;13.80;7.30;;;7.00;99.90;;;;;;9782253;30;20255;-75
2023/03/13 14:33:04;;;;;;;10.63;7.87;;;7.10;99.90;;;;;;9826831;30;20284;-79
2023/03/13 14:38:32;;;;;;;10.40;6.57;;;7.20;99.90;;;;;;9898092;30;20488;-78
2023/03/13 14:44:22;;;;;;;14.43;8.73;;;7.20;99.90;;;;;;9889579;30;20255;-80
2023/03/13 14:49:46;;;;;;;16.27;9.27;;;7.20;99.90;;;;;;9892459;30;20237;-76
2023/03/13 14:55:27;;;;;;;14.10;8.73;;;7.20;99.90;;;;;;9887081;30;20272;-79
2023/03/13 15:00:49;;;;;;;8.40;6.53;;;7.20;99.90;;;;;;9882272;30;20244;-82
2023/03/13 15:06:10;;;;;;;5.97;4.33;;;7.20;99.90;;;;;;9882144;30;20489;-77
2023/03/13 15:11:36;;;;;;;9.90;5.17;;;7.30;99.90;;;;;;9896881;30;20253;-79
2023/03/13 15:16:57;;;;;;;7.60;5.20;;;7.40;99.90;;;;;;9875348;30;20217;-78
2023/03/13 15:22:26;;;;;;;16.50;9.37;;;7.40;99.90;;;;;;9907968;30;20202;-83
2023/03/13 15:27:49;;;;;;;20.30;8.03;;;7.40;99.90;;;;;;9917825;29;20330;-77
2023/03/13 15:33:22;;;;;;;9.33;5.30;;;7.40;99.90;;;;;;9889915;30;20222;-82
2023/03/13 15:38:43;;;;;;;21.37;7.30;;;7.50;99.90;;;;;;9898724;30;20279;-80
2023/03/13 15:44:04;;;;;;;10.70;4.83;;;7.50;99.90;;;;;;9892812;30;20237;-81
2023/03/13 15:49:25;;;;;;;15.23;7.90;;;7.60;99.90;;;;;;9896341;30;20292;-79
2023/03/13 15:54:48;;;;;;;13.63;6.47;;;7.60;99.90;;;;;;9891894;30;20242;-80
2023/03/13 16:00:20;;;;;;;16.07;8.43;;;7.70;99.90;;;;;;9878927;30;20232;-79
2023/03/13 16:05:42;;;;;;;9.43;6.10;;;7.80;99.90;;;;;;9883707;30;20263;-78
2023/03/13 16:11:03;;;;;;;18.77;8.83;;;7.80;99.90;;;;;;9896852;30;20215;-80
2023/03/13 16:16:28;;;;;;;11.23;8.90;;;7.80;99.90;;;;;;9862124;30;20546;-76
2023/03/13 16:21:51;;;;;;;11.37;7.23;;;7.70;99.90;;;;;;9900472;30;20290;-78
2023/03/13 16:27:14;;;;;;;15.60;8.47;;;7.80;99.90;;;;;;9892997;30;20256;-79
2023/03/13 16:32:35;;;;;;;10.83;6.47;;;7.80;99.90;;;;;;9874455;30;20204;-80
2023/03/13 16:37:57;;;;;;;16.50;10.37;;;7.90;99.90;;;;;;9869755;30;20203;-79
2023/03/13 16:43:18;;;;;;;10.53;7.17;;;8.00;99.90;;;;;;9857062;30;20389;-79
2023/03/13 16:48:39;;;;;;;14.23;6.73;;;8.00;99.90;;;;;;9853924;30;20212;-78
2023/03/13 16:54:02;;;;;;;13.20;7.10;;;8.00;99.90;;;;;;9882833;30;20300;-79
2023/03/13 16:59:23;;;;;;;14.33;7.80;;;8.10;99.90;;;;;;9889221;30;20437;-79
2023/03/13 17:04:46;;;;;;;19.80;10.40;;;8.10;99.90;;;;;;9891092;30;20234;-80
2023/03/13 17:10:28;;;;;;;14.23;7.10;;;8.10;99.90;;;;;;9893128;30;20207;-80
2023/03/13 17:15:49;;;;;;;18.13;10.33;;;8.20;99.90;;;;;;9891668;30;20236;-79
2023/03/13 17:21:23;;;;;;;14.07;8.80;;;8.20;99.90;;;;;;9892033;30;20249;-80
2023/03/13 17:26:44;;;;;;;25.23;11.33;;;8.20;99.90;;;;;;9894636;30;20506;-80
2023/03/13 17:32:05;;;;;;;13.43;9.23;;;8.20;99.90;;;;;;9890758;30;20210;-79
2023/03/13 17:37:27;;;;;;;27.87;16.57;;;8.30;99.90;;;;;;9892023;30;20230;-79
2023/03/13 17:42:55;;;;;;;22.43;10.83;;;8.30;99.90;;;;;;9890953;30;20222;-79
2023/03/13 17:48:15;;;;;;;25.73;14.90;;;8.30;99.90;;;;;;9887957;30;20290;-79
2023/03/13 17:53:36;;;;;;;42.20;20.70;;;8.30;99.90;;;;;;9891350;30;20199;-79
2023/03/13 17:58:59;;;;;;;29.83;18.67;;;8.40;99.90;;;;;;9890324;30;20203;-79
2023/03/13 18:04:20;;;;;;;22.33;11.53;;;8.40;99.90;;;;;;9880329;30;20235;-79
2023/03/13 18:09:41;;;;;;;21.80;11.90;;;8.50;99.90;;;;;;9891775;30;20272;-80
2023/03/13 18:15:02;;;;;;;22.23;12.97;;;8.40;99.90;;;;;;9892929;30;20217;-79
2023/03/13 18:20:26;;;;;;;14.77;10.83;;;8.50;99.90;;;;;;9893592;30;20214;-80
2023/03/13 18:25:47;;;;;;;19.23;10.23;;;8.60;99.90;;;;;;9897140;30;20236;-80
2023/03/13 18:31:10;;;;;;;26.33;16.50;;;8.70;99.90;;;;;;9896121;30;20266;-79
2023/03/13 18:36:31;;;;;;;17.90;12.60;;;8.70;99.90;;;;;;9896703;30;20287;-80
2023/03/13 18:41:52;;;;;;;23.47;14.40;;;8.70;99.90;;;;;;9896961;30;20205;-79
2023/03/13 18:47:15;;;;;;;28.90;16.37;;;8.70;99.90;;;;;;9896931;30;20239;-80
2023/03/13 18:52:36;;;;;;;24.63;14.03;;;8.70;99.90;;;;;;9883237;30;20211;-80
2023/03/13 18:57:58;;;;;;;19.33;10.93;;;8.70;99.90;;;;;;9896998;30;20464;-80
2023/03/13 19:03:19;;;;;;;22.50;12.30;;;8.70;99.90;;;;;;9894569;30;20515;-79
2023/03/13 19:08:40;;;;;;;20.23;11.63;;;8.80;99.90;;;;;;9896805;30;20231;-79
2023/03/13 19:14:01;;;;;;;21.87;11.33;;;8.80;99.90;;;;;;9894712;30;20210;-78
2023/03/13 19:19:24;;;;;;;18.77;10.03;;;8.70;99.90;;;;;;9895589;30;20382;-79
2023/03/13 19:24:45;;;;;;;18.13;9.53;;;8.70;99.90;;;;;;9894967;30;20236;-79
2023/03/13 19:30:25;;;;;;;14.13;9.27;;;8.70;99.90;;;;;;9895252;30;20215;-79
2023/03/13 19:35:46;;;;;;;23.83;15.93;;;8.60;99.90;;;;;;9895981;30;20238;-79
2023/03/13 19:41:08;;;;;;;24.03;12.90;;;8.60;99.90;;;;;;9894387;30;20292;-79
2023/03/13 19:46:29;;;;;;;34.77;14.57;;;8.60;99.90;;;;;;9894562;30;20303;-79
2023/03/13 19:51:51;;;;;;;25.87;11.90;;;8.50;99.90;;;;;;9894689;30;20216;-78
2023/03/13 19:57:12;;;;;;;18.17;9.77;;;8.50;99.90;;;;;;9894804;30;20296;-78
2023/03/13 20:02:33;;;;;;;16.00;9.60;;;8.50;99.90;;;;;;9893242;30;20266;-79
2023/03/13 20:07:55;;;;;;;20.57;10.77;;;8.40;99.90;;;;;;9892438;30;20260;-79
2023/03/13 20:13:16;;;;;;;14.90;10.40;;;8.40;99.90;;;;;;9894492;30;20254;-79
2023/03/13 20:18:42;;;;;;;13.77;9.07;;;8.50;99.90;;;;;;9893902;30;20206;-79
2023/03/13 20:24:03;;;;;;;15.93;10.20;;;8.50;99.90;;;;;;9878772;30;20203;-80
2023/03/13 20:29:24;;;;;;;14.57;10.10;;;8.50;99.90;;;;;;9893467;30;20337;-80
2023/03/13 20:34:45;;;;;;;16.83;10.20;;;8.50;99.90;;;;;;9878515;30;20468;-79
2023/03/13 20:40:09;;;;;;;21.87;11.87;;;8.50;99.90;;;;;;9893389;30;20254;-80
2023/03/13 20:45:30;;;;;;;18.37;12.70;;;8.50;99.90;;;;;;9893488;30;20278;-80
2023/03/13 20:50:54;;;;;;;20.23;12.83;;;8.50;99.90;;;;;;9894056;30;20560;-79
2023/03/13 20:56:15;;;;;;;23.33;15.77;;;8.50;99.90;;;;;;9892868;30;20291;-80
2023/03/13 21:01:36;;;;;;;15.10;9.57;;;8.40;99.90;;;;;;9891982;30;20250;-79
2023/03/13 21:07:03;;;;;;;15.43;8.87;;;8.50;99.90;;;;;;9891452;30;20234;-79
2023/03/13 21:12:24;;;;;;;16.37;9.40;;;8.50;99.90;;;;;;9891655;30;20208;-80
2023/03/13 21:17:45;;;;;;;30.10;15.80;;;8.40;99.90;;;;;;9888176;30;20266;-79
2023/03/13 21:23:06;;;;;;;18.33;12.70;;;8.40;99.90;;;;;;9875836;30;20242;-79
2023/03/13 21:28:28;;;;;;;15.77;10.97;;;8.40;99.90;;;;;;9861366;30;20246;-80
2023/03/13 21:33:49;;;;;;;15.83;11.30;;;8.40;99.90;;;;;;9890989;30;20205;-80
2023/03/13 21:39:13;;;;;;;15.27;10.57;;;8.30;99.90;;;;;;9875461;30;20212;-79
2023/03/13 21:44:34;;;;;;;13.33;9.20;;;8.20;99.90;;;;;;9868530;30;20244;-80
2023/03/13 21:49:55;;;;;;;17.90;8.83;;;8.20;99.90;;;;;;9859826;30;20453;-79
2023/03/13 21:55:16;;;;;;;17.57;10.00;;;8.20;99.90;;;;;;9891286;30;20251;-79
2023/03/13 22:00:37;;;;;;;12.27;9.13;;;8.10;99.90;;;;;;9891424;30;20211;-80
2023/03/13 22:05:58;;;;;;;11.17;7.80;;;8.10;99.90;;;;;;9909154;30;20242;-80
2023/03/13 22:11:19;;;;;;;11.47;7.43;;;8.10;99.90;;;;;;9854682;30;20216;-80
2023/03/13 22:16:40;;;;;;;14.63;8.87;;;8.00;99.90;;;;;;9828668;30;20212;-80
2023/03/13 22:22:01;;;;;;;14.13;8.00;;;8.10;99.90;;;;;;9847718;30;20212;-80
2023/03/13 22:27:24;;;;;;;14.50;8.23;;;8.10;99.90;;;;;;9841136;30;20234;-80
2023/03/13 22:32:45;;;;;;;10.30;7.37;;;8.00;99.90;;;;;;9859938;30;20224;-79
2023/03/13 22:38:07;;;;;;;12.57;7.93;;;8.10;99.90;;;;;;9854147;30;20257;-80
2023/03/13 22:43:29;;;;;;;12.83;7.43;;;8.10;99.90;;;;;;9853051;30;20202;-79
2023/03/13 22:48:50;;;;;;;11.03;7.70;;;8.20;99.90;;;;;;9876266;30;20552;-79
2023/03/13 22:54:11;;;;;;;11.50;7.60;;;8.10;99.90;;;;;;9887935;30;20246;-80
2023/03/13 22:59:32;;;;;;;10.50;7.20;;;8.10;99.90;;;;;;9897390;30;20206;-78
2023/03/13 23:04:56;;;;;;;14.00;7.67;;;8.10;99.90;;;;;;9927767;30;20227;-80
2023/03/13 23:10:18;;;;;;;12.80;8.47;;;8.10;99.90;;;;;;9888697;30;20208;-81
2023/03/13 23:15:39;;;;;;;12.27;8.47;;;8.10;99.90;;;;;;9896862;30;20199;-79
2023/03/13 23:21:15;;;;;;;13.37;8.30;;;8.10;99.90;;;;;;9891051;29;20545;-79
2023/03/13 23:26:37;;;;;;;13.37;7.77;;;8.20;99.90;;;;;;9883724;30;20230;-79
2023/03/13 23:31:58;;;;;;;13.90;8.53;;;8.30;99.90;;;;;;9877039;30;20236;-80
2023/03/13 23:37:19;;;;;;;12.33;8.03;;;8.30;99.90;;;;;;9896259;30;20205;-79
2023/03/13 23:42:44;;;;;;;14.17;7.77;;;8.30;99.90;;;;;;9894599;30;20215;-78
2023/03/13 23:48:05;;;;;;;11.37;7.57;;;8.20;99.90;;;;;;9881978;30;20238;-80
2023/03/13 23:53:26;;;;;;;14.13;8.20;;;8.20;99.90;;;;;;9893507;30;20212;-79
2023/03/13 23:58:48;;;;;;;14.57;7.90;;;8.20;99.90;;;;;;9894527;30;20227;-80
